Terminal Aerodrome Forecast
Issued by NWS

Current Version | Previous Version | Text Only | Print | Product List | Glossary On
Versions: 1 2 3 4 5 6 7 8 9 10 11 12 13 14 15 16 17 18
000
FTUS42 KFFC 251831 AAA
TAFFTY
TAF AMD
KFTY 251831Z 2519/2618 22008G18KT P6SM SCT250
     FM252100 19008KT P6SM SCT120 OVC200
     FM260000 20004KT P6SM SCT035 OVC050
     FM260500 24005KT P6SM -RA OVC025
     FM260900 27006KT P6SM -RA OVC012
     FM261500 31012G20KT P6SM BKN025=

USA.gov is the U.S. government's official web portal to all federal, state and local government web resources and services.